LiveATC.Net - Listen to live air traffic control over the Internet!


ICAO: KLXV  IATA: LXV   Airport: Lake County Airport
City: Leadville   State/Province: Colorado
Country: United States   Continent: North America
KLXV METAR Weather: KLXV 280553Z AUTO 03007KT 10SM FEW065 M07/M16 A3035 RMK AO2 SLP266 T10721161 11039 21078 51008
KLXV Flight Activity (FlightAware)
KLXV Airport Info   (iFlightPlanner)
KLXV VFR Sectional Chart   (iFlightPlanner) 
KLXV IFR Low Chart   (iFlightPlanner) 

KLXV CTAF
Feed Status: DOWN
Last heard on: 2020-02-11 19:07:39 (16 days 11 hours 15 minutes ago)
Archive Access: KLXV CTAF
FacilityFrequency
Leadville CTAF122.800

NOTICE

Unauthorized use prohibited. See LiveATC.net Terms of Service


Airport/ARTCC Code
Frequency Search
(e.g., 124.400, 128.75)
Site-wide search
 


Browse Feeds
Top 50 Feeds
Coverage Map
Bad Weather Areas

LiveATC FAQ
Offer LiveATC feed
Contact LiveATC.net
Press Inquiries

LiveATC on iPhone
LiveATC on Android

Windows Phone
Windows 8/10

LiveATC Mobile
(Mobile browser)

ATC Audio Archives
Interesting Recordings

LiveATC Forums


Home Page
About LiveATC.net
Make a Donation
Terms of Use
Privacy Policy

Canadian Air Freqs

AIRMETs/SIGMETs

FAA Airport Status
Nat'l Airspace Status
Arrival Demand Charts


Server Software By:
Icecast.org
Liquidsoap